Главная страница
METAR-TAF:

METAR-TAF

Аэропорты :

Трольхеттан-Венерсборг, Швеция

широта: 58-19N, долгота: 012-21E, высота над уровнем моря: 41 м

Текущие метеонаблюдения

Эта сводка был подготовлена 20 минут назад, в 15:20 UTC
Ветер 9 Узел от восточно-северо-восточный, изменяющийся между северо-восточный и восточно-юго-восточный
Температура 13°C
Влажность 94%
Давление 1007 hPa
Видимость 10 км и более
небольшой дождь,

METAR: ESGT 221520Z AUTO 07009KT 050V110 9999 -RA OVC028/// 13/12 Q1007

Время: 17:40 (15:40 UTC)


TAF: отсутствует

Метеонаблюдения и прогнозы для более 4000 аэропортов (сводки METAR и TAF).

Имеющиеся станции представлены на карте желтыми и красными точками.

Чтобы увидеть название станции, наведите на нее мышь.

Затем щелкните, чтобы увидеть метеонаблюдения и метеопрогнозы.

Управление картой: чтобы увеличить масштаб, щелкните зеленые кнопки с черным крестиком; чтобы уменьшить масштаб, щелкните зеленую кнопку с тире; для просмотра соседних карт щелкайте зеленые стрелки.


METAR-TAF: